createdAt,value
2018-12-07T00:02:02.753Z,51.00
2018-12-07T00:04:32.012Z,49.90
2018-12-07T00:07:01.388Z,48.73
2018-12-07T00:09:30.616Z,49.10
2018-12-07T00:11:59.921Z,47.80
2018-12-07T00:14:29.261Z,44.30
2018-12-07T00:16:58.581Z,42.50
2018-12-07T00:19:28.008Z,43.23
2018-12-07T00:21:57.290Z,40.13
2018-12-07T00:24:26.555Z,39.07
2018-12-07T00:26:55.866Z,38.70
2018-12-07T00:29:25.339Z,38.67
2018-12-07T00:31:54.783Z,40.33
2018-12-07T00:34:24.123Z,34.97
2018-12-07T00:36:53.408Z,37.73
2018-12-07T00:39:22.664Z,33.97
2018-12-07T00:41:52.039Z,36.57
2018-12-07T00:44:21.303Z,36.43
2018-12-07T00:46:50.740Z,39.10
2018-12-07T00:49:20.035Z,37.37
2018-12-07T00:51:49.355Z,36.20
2018-12-07T00:54:18.675Z,35.30
2018-12-07T00:56:48.008Z,37.00
2018-12-07T00:59:17.417Z,37.07
2018-12-07T01:01:46.748Z,37.00
2018-12-07T01:04:16.019Z,33.60
2018-12-07T01:06:45.284Z,42.70
2018-12-07T01:09:14.675Z,41.00
2018-12-07T01:11:44.080Z,43.37
2018-12-07T01:14:13.472Z,46.67
2018-12-07T01:16:42.771Z,44.90
2018-12-07T01:19:12.058Z,43.13
2018-12-07T01:21:41.522Z,46.50
2018-12-07T01:24:10.859Z,50.83
2018-12-07T01:26:43.096Z,47.47
2018-12-07T01:29:12.348Z,45.90
2018-12-07T01:31:41.721Z,43.30
2018-12-07T01:34:11.012Z,40.37
2018-12-07T01:36:40.260Z,41.90
2018-12-07T01:39:09.523Z,41.80
2018-12-07T01:41:38.784Z,37.70
2018-12-07T01:44:08.095Z,41.13
2018-12-07T01:46:37.387Z,31.87
2018-12-07T01:49:06.704Z,33.03
2018-12-07T01:51:36.159Z,28.40
2018-12-07T01:54:05.564Z,28.97
2018-12-07T01:56:34.980Z,28.43
2018-12-07T01:59:04.277Z,25.67
2018-12-07T02:01:33.555Z,25.83
2018-12-07T02:04:02.892Z,23.33
2018-12-07T02:06:32.314Z,25.33
2018-12-07T02:09:01.536Z,22.50
2018-12-07T02:11:30.890Z,24.23
2018-12-07T02:14:00.178Z,22.93
2018-12-07T02:16:29.495Z,21.57
2018-12-07T02:18:58.756Z,24.13
2018-12-07T02:21:28.047Z,21.67
2018-12-07T02:23:57.345Z,21.53
2018-12-07T02:26:26.641Z,24.87
2018-12-07T02:28:55.935Z,24.30
2018-12-07T02:31:25.209Z,22.10
2018-12-07T02:33:54.580Z,23.77
2018-12-07T02:36:23.834Z,25.60
2018-12-07T02:38:53.074Z,23.43
2018-12-07T02:41:22.344Z,20.13
2018-12-07T02:43:51.688Z,21.47
2018-12-07T02:46:20.915Z,21.47
2018-12-07T02:48:50.232Z,20.80
2018-12-07T02:51:19.487Z,22.07
2018-12-07T02:53:48.839Z,22.37
2018-12-07T02:56:18.194Z,22.63
2018-12-07T02:58:47.528Z,25.17
2018-12-07T03:01:16.816Z,25.37
2018-12-07T03:03:46.220Z,26.60
2018-12-07T03:06:15.585Z,28.80
2018-12-07T03:08:44.920Z,24.03
2018-12-07T03:11:14.258Z,29.07
2018-12-07T03:13:43.584Z,30.23
2018-12-07T03:16:12.946Z,26.83
2018-12-07T03:18:42.296Z,28.53
2018-12-07T03:21:11.638Z,27.80
2018-12-07T03:23:40.924Z,35.13
2018-12-07T03:26:10.323Z,32.73
2018-12-07T03:28:39.738Z,34.27
2018-12-07T03:31:08.983Z,35.77
2018-12-07T03:33:38.245Z,35.30
2018-12-07T03:36:07.654Z,32.60
2018-12-07T03:38:36.959Z,41.73
2018-12-07T03:41:06.312Z,38.17
2018-12-07T03:43:35.643Z,34.40
2018-12-07T03:46:04.967Z,32.33
2018-12-07T03:48:34.194Z,33.00
2018-12-07T03:51:03.575Z,30.13
2018-12-07T03:53:32.880Z,28.73
2018-12-07T03:56:02.165Z,29.63
2018-12-07T03:58:31.586Z,27.23
2018-12-07T04:01:00.883Z,30.80
2018-12-07T04:03:30.179Z,29.27
2018-12-07T04:05:59.626Z,27.43
2018-12-07T04:08:28.963Z,26.80
2018-12-07T04:10:58.275Z,28.17
2018-12-07T04:13:27.590Z,28.87
2018-12-07T04:15:57.016Z,28.40
2018-12-07T04:18:26.304Z,25.60
2018-12-07T04:20:55.623Z,29.47
2018-12-07T04:23:24.957Z,33.50
2018-12-07T04:25:54.274Z,28.57
2018-12-07T04:28:23.534Z,27.23
2018-12-07T04:30:52.896Z,27.20
2018-12-07T04:33:22.181Z,25.87
2018-12-07T04:35:51.520Z,27.50
2018-12-07T04:38:20.820Z,30.00
2018-12-07T04:40:50.094Z,31.13
2018-12-07T04:43:19.467Z,28.60
2018-12-07T04:45:48.849Z,25.30
2018-12-07T04:48:18.148Z,24.27
2018-12-07T04:50:47.484Z,23.57
2018-12-07T04:53:16.800Z,24.60
2018-12-07T04:55:46.087Z,24.03
2018-12-07T04:58:15.377Z,24.40
2018-12-07T05:00:44.730Z,26.57
2018-12-07T05:03:14.017Z,26.80
2018-12-07T05:05:44.047Z,27.27
2018-12-07T05:08:13.327Z,29.33
2018-12-07T05:10:42.585Z,27.13
2018-12-07T05:13:11.896Z,27.97
2018-12-07T05:15:41.193Z,28.80
2018-12-07T05:18:10.539Z,30.87
2018-12-07T05:20:39.962Z,24.30
2018-12-07T05:23:09.152Z,26.33
2018-12-07T05:25:38.383Z,26.63
2018-12-07T05:28:07.747Z,29.50
2018-12-07T05:30:37.002Z,24.43
2018-12-07T05:33:06.322Z,26.10
2018-12-07T05:35:35.620Z,24.57
2018-12-07T05:38:04.990Z,24.90
2018-12-07T05:40:34.232Z,26.83
2018-12-07T05:43:03.492Z,24.63
2018-12-07T05:45:32.788Z,24.80
2018-12-07T05:48:02.207Z,24.50
2018-12-07T05:50:31.547Z,24.00
2018-12-07T05:53:00.820Z,23.03
2018-12-07T05:55:30.075Z,22.27
2018-12-07T05:57:59.339Z,27.70
2018-12-07T06:00:28.718Z,24.27
2018-12-07T06:02:57.972Z,23.67
2018-12-07T06:05:27.240Z,22.60
2018-12-07T06:07:56.592Z,24.40
2018-12-07T06:10:25.867Z,22.90
2018-12-07T06:12:55.235Z,24.17
2018-12-07T06:15:24.511Z,29.83
2018-12-07T06:17:53.812Z,24.83
2018-12-07T06:20:23.069Z,25.77
2018-12-07T06:22:52.396Z,28.97
2018-12-07T06:25:21.848Z,32.50
2018-12-07T06:27:51.118Z,27.30
2018-12-07T06:30:20.432Z,29.33
2018-12-07T06:32:49.828Z,27.97
2018-12-07T06:35:19.072Z,26.80
2018-12-07T06:37:48.285Z,26.53
2018-12-07T06:40:17.654Z,28.63
2018-12-07T06:42:46.943Z,28.67
2018-12-07T06:45:16.175Z,30.33
2018-12-07T06:47:45.452Z,29.90
2018-12-07T06:50:14.687Z,31.63
2018-12-07T06:52:44.078Z,31.23
2018-12-07T06:55:13.393Z,31.67
2018-12-07T06:57:42.742Z,35.60
2018-12-07T07:00:12.335Z,34.57
2018-12-07T07:02:41.695Z,39.67
2018-12-07T07:05:10.982Z,33.17
2018-12-07T07:07:40.315Z,30.40
2018-12-07T07:10:09.956Z,32.87
2018-12-07T07:12:45.919Z,35.40
2018-12-07T07:15:15.235Z,34.23
2018-12-07T07:17:44.506Z,35.60
2018-12-07T07:20:13.816Z,37.57
2018-12-07T07:22:43.142Z,36.40
2018-12-07T07:25:12.485Z,35.57
2018-12-07T07:27:41.804Z,35.23
2018-12-07T07:30:11.533Z,33.73
2018-12-07T07:32:40.852Z,32.73
2018-12-07T07:35:10.123Z,33.93
2018-12-07T07:37:39.425Z,28.20
2018-12-07T07:40:08.714Z,27.47
2018-12-07T07:42:38.086Z,29.13
2018-12-07T07:45:08.490Z,30.20
2018-12-07T07:47:37.832Z,32.43
2018-12-07T07:50:08.714Z,32.53
2018-12-07T07:52:37.953Z,32.53
2018-12-07T07:55:07.407Z,30.80
2018-12-07T07:57:36.736Z,33.67
2018-12-07T08:00:06.908Z,31.37
2018-12-07T08:02:36.215Z,33.60
2018-12-07T08:05:05.830Z,35.93
2018-12-07T08:07:35.174Z,32.13
2018-12-07T08:10:04.646Z,35.13
2018-12-07T08:12:34.040Z,32.70
2018-12-07T08:15:03.268Z,31.17
2018-12-07T08:17:32.570Z,36.30
2018-12-07T08:20:01.799Z,29.70
2018-12-07T08:22:31.033Z,33.27
2018-12-07T08:25:00.368Z,34.83
2018-12-07T08:27:29.684Z,32.37
2018-12-07T08:29:58.931Z,29.97
2018-12-07T08:32:28.172Z,32.93
2018-12-07T08:34:57.514Z,31.13
2018-12-07T08:37:26.768Z,28.83
2018-12-07T08:39:56.059Z,30.20
2018-12-07T08:42:25.398Z,26.87
2018-12-07T08:44:54.875Z,30.73
2018-12-07T08:47:24.499Z,29.37
2018-12-07T08:49:55.820Z,29.20
2018-12-07T08:52:25.434Z,26.37
2018-12-07T08:54:54.728Z,27.83
2018-12-07T08:57:24.068Z,29.83
2018-12-07T08:59:53.451Z,30.83
2018-12-07T09:02:22.748Z,27.37
2018-12-07T09:04:51.935Z,25.37
2018-12-07T09:07:21.192Z,26.10
2018-12-07T09:09:50.471Z,24.80
2018-12-07T09:12:19.913Z,24.87
2018-12-07T09:14:49.262Z,22.70
2018-12-07T09:17:18.596Z,24.23
2018-12-07T09:19:47.889Z,20.93
2018-12-07T09:22:17.088Z,21.97
2018-12-07T09:24:46.514Z,21.57
2018-12-07T09:27:15.815Z,19.97
2018-12-07T09:29:45.110Z,23.70
2018-12-07T09:32:14.345Z,21.10
2018-12-07T09:34:43.639Z,24.67
2018-12-07T09:37:12.983Z,18.33
2018-12-07T09:39:43.267Z,17.07
2018-12-07T09:42:12.571Z,19.93
2018-12-07T09:44:41.862Z,18.43
2018-12-07T09:47:11.241Z,19.80
2018-12-07T09:49:40.539Z,17.10
2018-12-07T09:52:09.791Z,15.63
2018-12-07T09:54:39.079Z,17.47
2018-12-07T09:57:07.918Z,15.87
2018-12-07T09:59:37.236Z,18.13
2018-12-07T10:02:06.551Z,15.07
2018-12-07T10:04:35.928Z,15.67
2018-12-07T10:07:05.231Z,18.13
2018-12-07T10:09:34.554Z,17.67
2018-12-07T10:12:04.134Z,17.87
2018-12-07T10:14:33.383Z,19.27
2018-12-07T10:17:02.693Z,17.83
2018-12-07T10:19:31.936Z,16.93
2018-12-07T10:22:01.185Z,15.17
2018-12-07T10:24:30.479Z,16.20
2018-12-07T10:27:06.788Z,16.30
2018-12-07T10:29:36.424Z,17.23
2018-12-07T10:32:06.415Z,16.40
2018-12-07T10:34:35.835Z,19.43
2018-12-07T10:37:05.140Z,15.43
2018-12-07T10:39:34.392Z,17.80
2018-12-07T10:42:03.745Z,18.57
2018-12-07T10:44:33.016Z,20.90
2018-12-07T10:47:02.388Z,23.10
2018-12-07T10:49:31.681Z,20.43
2018-12-07T10:52:01.022Z,23.40
2018-12-07T10:54:30.344Z,21.00
2018-12-07T10:56:59.608Z,19.43
2018-12-07T10:59:28.870Z,21.50
2018-12-07T11:02:03.368Z,19.13
2018-12-07T11:04:37.803Z,20.17
2018-12-07T11:07:12.290Z,22.70
2018-12-07T11:09:46.810Z,21.37
2018-12-07T11:12:21.455Z,20.23
2018-12-07T11:14:55.973Z,21.77
2018-12-07T11:17:30.545Z,21.77
2018-12-07T11:20:04.963Z,19.63
2018-12-07T11:22:39.448Z,19.20
2018-12-07T11:25:13.961Z,19.67
2018-12-07T11:27:48.423Z,20.73
2018-12-07T11:30:30.962Z,20.97
2018-12-07T11:33:05.720Z,21.53
2018-12-07T11:35:37.972Z,20.97
2018-12-07T11:38:08.110Z,20.33
2018-12-07T11:40:37.373Z,20.07
2018-12-07T11:43:06.684Z,20.23
2018-12-07T11:45:35.933Z,18.60
2018-12-07T11:48:05.252Z,22.63
2018-12-07T11:50:34.436Z,21.40
2018-12-07T11:53:03.695Z,24.00
2018-12-07T11:55:33.063Z,20.20
2018-12-07T11:58:02.352Z,19.30
2018-12-07T12:00:31.655Z,23.67
2018-12-07T12:03:00.870Z,21.40
2018-12-07T12:05:30.314Z,24.07
2018-12-07T12:07:59.604Z,24.97
2018-12-07T12:10:28.896Z,25.20
2018-12-07T12:12:58.427Z,22.57
2018-12-07T12:15:27.754Z,25.40
2018-12-07T12:17:57.047Z,24.73
2018-12-07T12:20:26.315Z,23.43
2018-12-07T12:22:55.695Z,23.03
2018-12-07T12:25:24.927Z,22.70
2018-12-07T12:27:54.304Z,20.53
2018-12-07T12:30:23.612Z,20.63
2018-12-07T12:32:52.851Z,25.77
2018-12-07T12:35:22.183Z,22.60
2018-12-07T12:37:51.489Z,21.87
2018-12-07T12:40:20.711Z,19.37
2018-12-07T12:42:50.041Z,24.00
2018-12-07T12:45:19.377Z,22.53
2018-12-07T12:47:48.624Z,22.93
2018-12-07T12:50:23.139Z,21.83
2018-12-07T12:52:52.443Z,22.03
2018-12-07T12:55:21.692Z,20.20
2018-12-07T12:57:50.995Z,23.27
2018-12-07T13:00:20.370Z,23.30
2018-12-07T13:02:49.611Z,20.33
2018-12-07T13:05:18.931Z,21.47
2018-12-07T13:07:48.242Z,22.80
2018-12-07T13:10:17.472Z,21.90
2018-12-07T13:12:46.752Z,22.67
2018-12-07T13:15:16.223Z,22.77
2018-12-07T13:17:45.505Z,20.47
2018-12-07T13:20:14.920Z,20.03
2018-12-07T13:22:44.253Z,21.70
2018-12-07T13:25:13.509Z,21.27
2018-12-07T13:27:42.862Z,20.87
2018-12-07T13:30:12.196Z,23.70
2018-12-07T13:32:41.475Z,21.57
2018-12-07T13:35:10.712Z,21.20
2018-12-07T13:37:40.017Z,25.57
2018-12-07T13:40:09.651Z,21.27
2018-12-07T13:42:39.112Z,20.67
2018-12-07T13:45:09.715Z,21.00
2018-12-07T13:47:39.032Z,22.00
2018-12-07T13:50:13.667Z,23.70
2018-12-07T13:52:43.137Z,20.00
2018-12-07T13:55:12.656Z,21.23
2018-12-07T13:57:42.105Z,22.60
2018-12-07T14:00:11.533Z,23.63
2018-12-07T14:02:40.905Z,24.90
2018-12-07T14:05:10.381Z,23.97
2018-12-07T14:07:39.832Z,20.50
2018-12-07T14:10:09.413Z,24.70
2018-12-07T14:12:38.766Z,30.17
2018-12-07T14:15:08.289Z,25.30
2018-12-07T14:17:37.796Z,24.83
2018-12-07T14:20:08.092Z,27.50
2018-12-07T14:22:37.609Z,27.30
2018-12-07T14:25:07.453Z,30.97
2018-12-07T14:27:36.779Z,28.30
2018-12-07T14:30:08.224Z,35.93
2018-12-07T14:32:37.617Z,32.47
2018-12-07T14:35:07.472Z,32.97
2018-12-07T14:37:36.964Z,35.17
2018-12-07T14:40:07.722Z,35.60
2018-12-07T14:42:37.129Z,34.67
2018-12-07T14:45:07.900Z,35.57
2018-12-07T14:47:37.375Z,37.20
2018-12-07T14:50:07.466Z,33.63
2018-12-07T14:52:37.193Z,35.53
2018-12-07T14:55:06.933Z,40.07
2018-12-07T14:57:36.296Z,36.20
2018-12-07T15:00:07.203Z,37.07
2018-12-07T15:02:36.711Z,36.57
2018-12-07T15:05:06.811Z,42.13
2018-12-07T15:07:36.256Z,41.10
2018-12-07T15:10:06.868Z,37.90
2018-12-07T15:12:36.431Z,39.93
2018-12-07T15:15:06.871Z,36.57
2018-12-07T15:17:36.459Z,38.73
2018-12-07T15:20:06.515Z,41.17
2018-12-07T15:22:35.974Z,35.23
2018-12-07T15:25:06.665Z,35.57
2018-12-07T15:27:36.063Z,36.27
2018-12-07T15:30:07.055Z,40.00
2018-12-07T15:32:36.607Z,36.63
2018-12-07T15:35:07.906Z,37.40
2018-12-07T15:37:37.560Z,38.13
2018-12-07T15:40:09.263Z,36.03
2018-12-07T15:42:39.862Z,33.73
2018-12-07T15:45:09.804Z,36.97
2018-12-07T15:47:39.334Z,35.30
2018-12-07T15:50:09.911Z,38.13
2018-12-07T15:52:39.329Z,38.83
2018-12-07T15:55:09.018Z,39.90
2018-12-07T15:57:38.426Z,41.07
2018-12-07T16:00:09.221Z,41.77
2018-12-07T16:02:38.856Z,43.57
2018-12-07T16:05:08.479Z,40.40
2018-12-07T16:07:37.928Z,42.83
2018-12-07T16:10:08.058Z,42.50
2018-12-07T16:12:37.621Z,40.53
2018-12-07T16:15:07.050Z,42.13
2018-12-07T16:17:36.332Z,42.57
2018-12-07T16:20:09.579Z,38.97
2018-12-07T16:22:39.162Z,37.10
2018-12-07T16:25:08.571Z,37.27
2018-12-07T16:27:37.910Z,40.10
2018-12-07T16:30:09.501Z,39.80
2018-12-07T16:32:39.367Z,35.73
2018-12-07T16:35:09.018Z,36.97
2018-12-07T16:37:38.652Z,37.03
2018-12-07T16:40:09.420Z,35.63
2018-12-07T16:42:38.887Z,36.97
2018-12-07T16:45:08.485Z,34.70
2018-12-07T16:47:38.202Z,35.03
2018-12-07T16:50:08.168Z,33.87
2018-12-07T16:52:37.655Z,39.60
2018-12-07T16:55:07.180Z,36.23
2018-12-07T16:57:36.411Z,36.30
2018-12-07T17:00:06.532Z,34.43
2018-12-07T17:02:36.013Z,38.03
2018-12-07T17:05:06.141Z,41.27
2018-12-07T17:07:35.714Z,41.20
2018-12-07T17:10:06.079Z,43.67
2018-12-07T17:12:35.429Z,47.17
2018-12-07T17:15:05.053Z,43.90
2018-12-07T17:17:34.695Z,44.10
2018-12-07T17:20:04.671Z,49.70
2018-12-07T17:22:34.312Z,52.23
2018-12-07T17:25:03.831Z,54.23
2018-12-07T17:27:33.283Z,62.60
2018-12-07T17:30:02.811Z,64.40
2018-12-07T17:32:32.401Z,65.97
2018-12-07T17:35:01.855Z,70.23
2018-12-07T17:37:31.477Z,71.37
2018-12-07T17:40:01.010Z,64.87
2018-12-07T17:42:30.691Z,57.50
2018-12-07T17:45:00.203Z,57.10
2018-12-07T17:47:29.797Z,58.17
2018-12-07T17:49:59.438Z,54.77
2018-12-07T17:52:28.982Z,59.43
2018-12-07T17:54:58.411Z,54.63
2018-12-07T17:57:27.893Z,50.70
2018-12-07T17:59:57.306Z,55.57
2018-12-07T18:02:26.713Z,60.57
2018-12-07T18:04:56.050Z,55.93
2018-12-07T18:07:25.615Z,60.33
2018-12-07T18:09:54.978Z,55.43
2018-12-07T18:12:24.377Z,59.83
2018-12-07T18:14:53.728Z,53.57
2018-12-07T18:17:23.329Z,56.30
2018-12-07T18:19:53.000Z,59.50
2018-12-07T18:22:22.488Z,56.20
2018-12-07T18:24:52.074Z,55.57
2018-12-07T18:27:21.482Z,53.37
2018-12-07T18:29:51.570Z,55.30
2018-12-07T18:32:21.000Z,50.70
2018-12-07T18:34:50.860Z,53.57
2018-12-07T18:37:20.409Z,50.27
2018-12-07T18:39:49.948Z,50.10
2018-12-07T18:42:20.721Z,50.17
2018-12-07T18:44:54.306Z,50.57
2018-12-07T18:47:24.009Z,48.87
2018-12-07T18:49:55.668Z,50.10
2018-12-07T18:52:25.103Z,51.87
2018-12-07T18:54:54.627Z,52.33
2018-12-07T18:57:24.239Z,48.00
2018-12-07T18:59:53.677Z,50.50
2018-12-07T19:02:23.861Z,51.37
2018-12-07T19:04:53.284Z,56.03
2018-12-07T19:07:22.676Z,57.97
2018-12-07T19:09:52.180Z,61.87
2018-12-07T19:12:21.666Z,61.63
2018-12-07T19:14:51.086Z,62.90
2018-12-07T19:17:20.503Z,66.60
2018-12-07T19:19:49.832Z,63.80
2018-12-07T19:22:19.453Z,63.60
2018-12-07T19:24:48.884Z,62.40
2018-12-07T19:27:18.430Z,61.60
2018-12-07T19:29:47.811Z,61.97
2018-12-07T19:32:17.405Z,56.93
2018-12-07T19:34:46.928Z,61.93
2018-12-07T19:37:16.445Z,60.10
2018-12-07T19:39:46.110Z,61.97
2018-12-07T19:42:15.898Z,59.97
2018-12-07T19:44:45.312Z,59.67
2018-12-07T19:47:14.893Z,55.80
2018-12-07T19:49:44.497Z,56.43
2018-12-07T19:52:14.020Z,55.87
2018-12-07T19:54:43.630Z,55.57
2018-12-07T19:57:13.411Z,59.27
2018-12-07T19:59:42.882Z,61.47
2018-12-07T20:02:12.185Z,62.00
2018-12-07T20:04:41.579Z,58.17
2018-12-07T20:07:10.968Z,56.53
2018-12-07T20:09:40.388Z,54.37
2018-12-07T20:12:09.770Z,62.70
2018-12-07T20:14:39.471Z,57.33
2018-12-07T20:17:09.258Z,59.80
2018-12-07T20:19:38.727Z,57.23
2018-12-07T20:22:08.098Z,55.20
2018-12-07T20:24:37.471Z,57.53
2018-12-07T20:27:07.161Z,59.27
2018-12-07T20:29:36.781Z,61.87
2018-12-07T20:32:06.451Z,60.30
2018-12-07T20:34:36.473Z,54.63
2018-12-07T20:37:06.350Z,56.93
2018-12-07T20:39:36.396Z,55.83
2018-12-07T20:42:05.827Z,64.33
2018-12-07T20:44:35.587Z,61.47
2018-12-07T20:47:06.078Z,58.17
2018-12-07T20:49:36.474Z,53.93
2018-12-07T20:52:06.713Z,58.73
2018-12-07T20:54:36.318Z,64.50
2018-12-07T20:57:06.085Z,64.20
2018-12-07T20:59:36.020Z,66.90
2018-12-07T21:02:05.935Z,63.13
2018-12-07T21:04:38.072Z,61.73
2018-12-07T21:08:36.205Z,68.73
2018-12-07T21:11:17.375Z,81.07
2018-12-07T21:14:03.032Z,67.90
2018-12-07T21:17:04.016Z,72.00
2018-12-07T21:19:34.600Z,80.27
2018-12-07T21:22:04.243Z,66.87
2018-12-07T21:24:33.716Z,70.40
2018-12-07T21:27:03.456Z,62.80
2018-12-07T21:29:32.851Z,62.33
2018-12-07T21:32:04.015Z,58.90
2018-12-07T21:35:08.785Z,59.87
2018-12-07T21:37:38.187Z,59.83
2018-12-07T21:40:19.578Z,58.57
2018-12-07T21:42:49.271Z,55.93
2018-12-07T21:45:18.805Z,56.73
2018-12-07T21:48:04.325Z,58.13
2018-12-07T21:50:34.291Z,55.33
2018-12-07T21:53:03.661Z,56.57
2018-12-07T21:55:33.250Z,52.00
2018-12-07T21:58:02.788Z,52.23
2018-12-07T22:00:32.329Z,59.57
2018-12-07T22:03:02.418Z,53.43
2018-12-07T22:05:32.203Z,57.37
2018-12-07T22:08:01.834Z,54.43
2018-12-07T22:10:31.335Z,51.40
2018-12-07T22:13:00.767Z,54.90
2018-12-07T22:15:30.498Z,50.23
2018-12-07T22:17:59.918Z,54.77
2018-12-07T22:20:29.376Z,54.33
2018-12-07T22:22:58.939Z,52.93
2018-12-07T22:25:28.557Z,50.70
2018-12-07T22:27:58.240Z,56.87
2018-12-07T22:30:27.724Z,53.00
2018-12-07T22:32:57.650Z,50.80
2018-12-07T22:35:27.125Z,51.27
2018-12-07T22:37:56.811Z,52.17
2018-12-07T22:40:26.395Z,52.53
2018-12-07T22:42:55.994Z,50.83
2018-12-07T22:45:25.611Z,53.97
2018-12-07T22:47:54.879Z,47.07
2018-12-07T22:50:24.144Z,50.60
2018-12-07T22:52:53.411Z,47.50
2018-12-07T22:55:22.742Z,49.73
2018-12-07T22:57:51.997Z,46.70
2018-12-07T23:00:22.311Z,52.33
2018-12-07T23:02:51.537Z,49.37
2018-12-07T23:05:20.899Z,50.57
2018-12-07T23:07:53.132Z,47.63
2018-12-07T23:10:22.439Z,45.87
2018-12-07T23:12:51.753Z,48.37
2018-12-07T23:15:21.056Z,48.33
2018-12-07T23:17:50.339Z,43.83
2018-12-07T23:20:19.719Z,42.23
2018-12-07T23:22:49.220Z,47.97
2018-12-07T23:25:18.640Z,44.77
2018-12-07T23:27:47.874Z,43.80
2018-12-07T23:30:17.245Z,43.47
2018-12-07T23:32:46.511Z,42.77
2018-12-07T23:35:15.887Z,40.90
2018-12-07T23:37:45.227Z,41.93
2018-12-07T23:40:14.551Z,44.17
2018-12-07T23:42:43.791Z,46.93
2018-12-07T23:45:13.111Z,45.33
2018-12-07T23:47:42.476Z,41.80
2018-12-07T23:50:12.029Z,44.90
2018-12-07T23:52:41.329Z,42.63
2018-12-07T23:55:10.692Z,43.00
2018-12-07T23:57:40.036Z,44.13
